sensor_id;sensor_type;location;lat;lon;timestamp;P1;durP1;ratioP1;P2;durP2;ratioP2
13641;SDS011;6894;52.196;9.904;2024-03-02T00:01:09;16.20;;;13.43;;
13641;SDS011;6894;52.196;9.904;2024-03-02T00:03:37;16.77;;;13.40;;
13641;SDS011;6894;52.196;9.904;2024-03-02T00:06:04;17.27;;;13.33;;
13641;SDS011;6894;52.196;9.904;2024-03-02T00:08:32;17.93;;;13.30;;
13641;SDS011;6894;52.196;9.904;2024-03-02T00:10:59;18.87;;;13.90;;
13641;SDS011;6894;52.196;9.904;2024-03-02T00:13:27;17.73;;;14.37;;
13641;SDS011;6894;52.196;9.904;2024-03-02T00:15:56;17.43;;;14.17;;
13641;SDS011;6894;52.196;9.904;2024-03-02T00:18:25;17.07;;;14.17;;
13641;SDS011;6894;52.196;9.904;2024-03-02T00:20:54;19.77;;;14.90;;
13641;SDS011;6894;52.196;9.904;2024-03-02T00:23:23;16.50;;;14.70;;
13641;SDS011;6894;52.196;9.904;2024-03-02T00:25:50;20.07;;;15.03;;
13641;SDS011;6894;52.196;9.904;2024-03-02T00:28:19;18.47;;;15.43;;
13641;SDS011;6894;52.196;9.904;2024-03-02T00:30:54;19.13;;;15.27;;
13641;SDS011;6894;52.196;9.904;2024-03-02T00:33:23;19.30;;;14.57;;
13641;SDS011;6894;52.196;9.904;2024-03-02T00:35:58;19.70;;;14.80;;
13641;SDS011;6894;52.196;9.904;2024-03-02T00:38:25;19.50;;;15.27;;
13641;SDS011;6894;52.196;9.904;2024-03-02T00:40:53;18.93;;;15.00;;
13641;SDS011;6894;52.196;9.904;2024-03-02T00:43:37;18.60;;;15.87;;
13641;SDS011;6894;52.196;9.904;2024-03-02T00:46:07;18.50;;;15.57;;
13641;SDS011;6894;52.196;9.904;2024-03-02T00:48:34;18.40;;;14.83;;
13641;SDS011;6894;52.196;9.904;2024-03-02T00:51:03;19.10;;;14.77;;
13641;SDS011;6894;52.196;9.904;2024-03-02T00:53:30;21.40;;;15.53;;
13641;SDS011;6894;52.196;9.904;2024-03-02T00:55:58;20.73;;;15.47;;
13641;SDS011;6894;52.196;9.904;2024-03-02T00:58:25;18.00;;;15.10;;
13641;SDS011;6894;52.196;9.904;2024-03-02T01:00:52;19.83;;;15.03;;
13641;SDS011;6894;52.196;9.904;2024-03-02T01:03:19;20.43;;;15.80;;
13641;SDS011;6894;52.196;9.904;2024-03-02T01:05:45;19.17;;;14.67;;
13641;SDS011;6894;52.196;9.904;2024-03-02T01:08:14;22.80;;;15.83;;
13641;SDS011;6894;52.196;9.904;2024-03-02T01:10:40;20.47;;;15.97;;
13641;SDS011;6894;52.196;9.904;2024-03-02T01:13:08;22.00;;;16.13;;
13641;SDS011;6894;52.196;9.904;2024-03-02T01:15:35;23.00;;;15.53;;
13641;SDS011;6894;52.196;9.904;2024-03-02T01:18:01;20.17;;;15.43;;
13641;SDS011;6894;52.196;9.904;2024-03-02T01:20:28;21.60;;;16.63;;
13641;SDS011;6894;52.196;9.904;2024-03-02T01:22:54;26.07;;;16.70;;
13641;SDS011;6894;52.196;9.904;2024-03-02T01:25:22;21.30;;;16.23;;
13641;SDS011;6894;52.196;9.904;2024-03-02T01:27:50;19.70;;;16.43;;
13641;SDS011;6894;52.196;9.904;2024-03-02T01:30:16;20.37;;;15.93;;
13641;SDS011;6894;52.196;9.904;2024-03-02T01:32:44;22.70;;;16.70;;
13641;SDS011;6894;52.196;9.904;2024-03-02T01:35:10;19.27;;;16.47;;
13641;SDS011;6894;52.196;9.904;2024-03-02T01:37:37;19.80;;;15.83;;
13641;SDS011;6894;52.196;9.904;2024-03-02T01:40:04;21.23;;;16.00;;
13641;SDS011;6894;52.196;9.904;2024-03-02T01:42:35;21.20;;;16.50;;
13641;SDS011;6894;52.196;9.904;2024-03-02T01:45:03;22.10;;;16.30;;
13641;SDS011;6894;52.196;9.904;2024-03-02T01:47:31;22.20;;;17.00;;
13641;SDS011;6894;52.196;9.904;2024-03-02T01:49:58;21.97;;;16.60;;
13641;SDS011;6894;52.196;9.904;2024-03-02T01:52:26;22.87;;;16.37;;
13641;SDS011;6894;52.196;9.904;2024-03-02T01:54:53;22.23;;;16.50;;
13641;SDS011;6894;52.196;9.904;2024-03-02T01:57:20;21.10;;;15.30;;
13641;SDS011;6894;52.196;9.904;2024-03-02T01:59:48;19.63;;;15.73;;
13641;SDS011;6894;52.196;9.904;2024-03-02T02:02:15;22.70;;;16.70;;
13641;SDS011;6894;52.196;9.904;2024-03-02T02:04:42;22.63;;;16.37;;
13641;SDS011;6894;52.196;9.904;2024-03-02T02:07:09;20.20;;;15.77;;
13641;SDS011;6894;52.196;9.904;2024-03-02T02:09:36;21.93;;;16.07;;
13641;SDS011;6894;52.196;9.904;2024-03-02T02:12:03;21.27;;;15.80;;
13641;SDS011;6894;52.196;9.904;2024-03-02T02:14:31;20.57;;;15.40;;
13641;SDS011;6894;52.196;9.904;2024-03-02T02:17:00;20.80;;;15.63;;
13641;SDS011;6894;52.196;9.904;2024-03-02T02:19:26;21.23;;;15.70;;
13641;SDS011;6894;52.196;9.904;2024-03-02T02:21:55;21.37;;;15.50;;
13641;SDS011;6894;52.196;9.904;2024-03-02T02:24:21;18.70;;;15.43;;
13641;SDS011;6894;52.196;9.904;2024-03-02T02:26:48;21.37;;;16.23;;
13641;SDS011;6894;52.196;9.904;2024-03-02T02:29:15;22.83;;;16.43;;
13641;SDS011;6894;52.196;9.904;2024-03-02T02:31:42;18.87;;;15.83;;
13641;SDS011;6894;52.196;9.904;2024-03-02T02:34:09;20.03;;;15.33;;
13641;SDS011;6894;52.196;9.904;2024-03-02T02:36:36;19.07;;;15.07;;
13641;SDS011;6894;52.196;9.904;2024-03-02T02:39:06;23.43;;;14.90;;
13641;SDS011;6894;52.196;9.904;2024-03-02T02:41:37;20.37;;;15.47;;
13641;SDS011;6894;52.196;9.904;2024-03-02T02:44:04;22.87;;;15.23;;
13641;SDS011;6894;52.196;9.904;2024-03-02T02:46:31;18.30;;;15.77;;
13641;SDS011;6894;52.196;9.904;2024-03-02T02:48:57;18.97;;;14.73;;
13641;SDS011;6894;52.196;9.904;2024-03-02T02:51:24;22.13;;;15.13;;
13641;SDS011;6894;52.196;9.904;2024-03-02T02:53:51;19.63;;;14.93;;
13641;SDS011;6894;52.196;9.904;2024-03-02T02:56:19;21.17;;;15.67;;
13641;SDS011;6894;52.196;9.904;2024-03-02T02:58:46;21.60;;;16.27;;
13641;SDS011;6894;52.196;9.904;2024-03-02T03:01:13;17.37;;;13.97;;
13641;SDS011;6894;52.196;9.904;2024-03-02T03:03:42;20.27;;;15.57;;
13641;SDS011;6894;52.196;9.904;2024-03-02T03:06:09;20.33;;;15.43;;
13641;SDS011;6894;52.196;9.904;2024-03-02T03:08:36;22.13;;;15.37;;
13641;SDS011;6894;52.196;9.904;2024-03-02T03:11:03;21.17;;;15.30;;
13641;SDS011;6894;52.196;9.904;2024-03-02T03:13:31;18.17;;;15.10;;
13641;SDS011;6894;52.196;9.904;2024-03-02T03:15:59;17.97;;;14.67;;
13641;SDS011;6894;52.196;9.904;2024-03-02T03:18:26;18.90;;;15.47;;
13641;SDS011;6894;52.196;9.904;2024-03-02T03:20:53;17.90;;;14.03;;
13641;SDS011;6894;52.196;9.904;2024-03-02T03:23:20;19.63;;;13.80;;
13641;SDS011;6894;52.196;9.904;2024-03-02T03:25:46;18.87;;;14.20;;
13641;SDS011;6894;52.196;9.904;2024-03-02T03:28:13;16.30;;;13.53;;
13641;SDS011;6894;52.196;9.904;2024-03-02T03:30:41;19.23;;;14.47;;
13641;SDS011;6894;52.196;9.904;2024-03-02T03:33:08;14.97;;;12.77;;
13641;SDS011;6894;52.196;9.904;2024-03-02T03:35:35;16.07;;;13.53;;
13641;SDS011;6894;52.196;9.904;2024-03-02T03:38:03;17.90;;;12.93;;
13641;SDS011;6894;52.196;9.904;2024-03-02T03:40:30;15.47;;;11.77;;
13641;SDS011;6894;52.196;9.904;2024-03-02T03:42:57;15.03;;;12.27;;
13641;SDS011;6894;52.196;9.904;2024-03-02T03:45:25;15.73;;;12.50;;
13641;SDS011;6894;52.196;9.904;2024-03-02T03:47:53;16.33;;;12.77;;
13641;SDS011;6894;52.196;9.904;2024-03-02T03:50:20;13.90;;;12.33;;
13641;SDS011;6894;52.196;9.904;2024-03-02T03:52:47;17.23;;;12.70;;
13641;SDS011;6894;52.196;9.904;2024-03-02T03:55:14;16.40;;;12.87;;
13641;SDS011;6894;52.196;9.904;2024-03-02T03:57:40;15.00;;;11.87;;
13641;SDS011;6894;52.196;9.904;2024-03-02T04:00:07;17.73;;;13.10;;
13641;SDS011;6894;52.196;9.904;2024-03-02T04:02:36;15.47;;;12.00;;
13641;SDS011;6894;52.196;9.904;2024-03-02T04:05:05;15.73;;;12.60;;
13641;SDS011;6894;52.196;9.904;2024-03-02T04:07:34;17.60;;;12.57;;
13641;SDS011;6894;52.196;9.904;2024-03-02T04:10:05;17.43;;;12.87;;
13641;SDS011;6894;52.196;9.904;2024-03-02T04:12:33;16.57;;;12.67;;
13641;SDS011;6894;52.196;9.904;2024-03-02T04:15:00;17.33;;;13.03;;
13641;SDS011;6894;52.196;9.904;2024-03-02T04:17:28;16.17;;;13.73;;
13641;SDS011;6894;52.196;9.904;2024-03-02T04:19:57;16.93;;;13.63;;
13641;SDS011;6894;52.196;9.904;2024-03-02T04:22:25;16.70;;;13.37;;
13641;SDS011;6894;52.196;9.904;2024-03-02T04:24:52;18.83;;;13.67;;
13641;SDS011;6894;52.196;9.904;2024-03-02T04:27:19;22.40;;;13.97;;
13641;SDS011;6894;52.196;9.904;2024-03-02T04:29:45;19.60;;;14.17;;
13641;SDS011;6894;52.196;9.904;2024-03-02T04:32:12;18.60;;;14.37;;
13641;SDS011;6894;52.196;9.904;2024-03-02T04:34:39;19.20;;;14.37;;
13641;SDS011;6894;52.196;9.904;2024-03-02T04:37:06;17.77;;;15.30;;
13641;SDS011;6894;52.196;9.904;2024-03-02T04:39:35;20.43;;;15.23;;
13641;SDS011;6894;52.196;9.904;2024-03-02T04:42:02;19.83;;;13.87;;
13641;SDS011;6894;52.196;9.904;2024-03-02T04:44:29;19.47;;;15.77;;
13641;SDS011;6894;52.196;9.904;2024-03-02T04:46:55;23.07;;;16.33;;
13641;SDS011;6894;52.196;9.904;2024-03-02T04:49:22;20.73;;;15.80;;
13641;SDS011;6894;52.196;9.904;2024-03-02T04:51:49;22.70;;;15.67;;
13641;SDS011;6894;52.196;9.904;2024-03-02T04:54:16;21.87;;;16.27;;
13641;SDS011;6894;52.196;9.904;2024-03-02T04:56:44;22.97;;;16.70;;
13641;SDS011;6894;52.196;9.904;2024-03-02T04:59:14;20.50;;;16.00;;
13641;SDS011;6894;52.196;9.904;2024-03-02T05:01:41;23.40;;;15.97;;
13641;SDS011;6894;52.196;9.904;2024-03-02T05:04:08;21.93;;;16.43;;
13641;SDS011;6894;52.196;9.904;2024-03-02T05:06:36;19.20;;;15.30;;
13641;SDS011;6894;52.196;9.904;2024-03-02T05:09:04;21.63;;;16.23;;
13641;SDS011;6894;52.196;9.904;2024-03-02T05:11:31;23.40;;;16.43;;
13641;SDS011;6894;52.196;9.904;2024-03-02T05:14:16;23.37;;;16.17;;
13641;SDS011;6894;52.196;9.904;2024-03-02T05:16:43;21.70;;;16.70;;
13641;SDS011;6894;52.196;9.904;2024-03-02T05:19:10;19.70;;;15.40;;
13641;SDS011;6894;52.196;9.904;2024-03-02T05:21:37;22.90;;;16.83;;
13641;SDS011;6894;52.196;9.904;2024-03-02T05:24:04;24.13;;;16.40;;
13641;SDS011;6894;52.196;9.904;2024-03-02T05:26:31;20.73;;;16.07;;
13641;SDS011;6894;52.196;9.904;2024-03-02T05:28:57;24.40;;;16.97;;
13641;SDS011;6894;52.196;9.904;2024-03-02T05:31:26;20.97;;;16.53;;
13641;SDS011;6894;52.196;9.904;2024-03-02T05:33:52;22.07;;;16.37;;
13641;SDS011;6894;52.196;9.904;2024-03-02T05:36:19;21.83;;;17.03;;
13641;SDS011;6894;52.196;9.904;2024-03-02T05:38:46;23.70;;;16.20;;
13641;SDS011;6894;52.196;9.904;2024-03-02T05:41:13;19.70;;;15.37;;
13641;SDS011;6894;52.196;9.904;2024-03-02T05:43:40;20.43;;;15.80;;
13641;SDS011;6894;52.196;9.904;2024-03-02T05:46:06;21.70;;;15.17;;
13641;SDS011;6894;52.196;9.904;2024-03-02T05:48:35;22.93;;;15.97;;
13641;SDS011;6894;52.196;9.904;2024-03-02T05:51:01;18.90;;;15.77;;
13641;SDS011;6894;52.196;9.904;2024-03-02T05:53:28;22.73;;;15.83;;
13641;SDS011;6894;52.196;9.904;2024-03-02T05:55:55;22.70;;;16.00;;
13641;SDS011;6894;52.196;9.904;2024-03-02T05:58:22;55.47;;;29.20;;
13641;SDS011;6894;52.196;9.904;2024-03-02T06:01:02;68.53;;;36.43;;
13641;SDS011;6894;52.196;9.904;2024-03-02T06:03:29;28.63;;;19.67;;
13641;SDS011;6894;52.196;9.904;2024-03-02T06:05:57;26.97;;;17.87;;
13641;SDS011;6894;52.196;9.904;2024-03-02T06:08:24;20.07;;;15.73;;
13641;SDS011;6894;52.196;9.904;2024-03-02T06:10:51;20.80;;;15.20;;
13641;SDS011;6894;52.196;9.904;2024-03-02T06:13:18;19.20;;;15.20;;
13641;SDS011;6894;52.196;9.904;2024-03-02T06:15:45;21.93;;;15.40;;
13641;SDS011;6894;52.196;9.904;2024-03-02T06:18:12;21.10;;;15.50;;
13641;SDS011;6894;52.196;9.904;2024-03-02T06:20:38;20.03;;;15.00;;
13641;SDS011;6894;52.196;9.904;2024-03-02T06:23:06;20.43;;;15.87;;
13641;SDS011;6894;52.196;9.904;2024-03-02T06:25:33;21.50;;;15.83;;
13641;SDS011;6894;52.196;9.904;2024-03-02T06:28:00;20.13;;;14.83;;
13641;SDS011;6894;52.196;9.904;2024-03-02T06:30:27;21.03;;;16.07;;
13641;SDS011;6894;52.196;9.904;2024-03-02T06:32:54;18.60;;;15.00;;
13641;SDS011;6894;52.196;9.904;2024-03-02T06:35:21;25.80;;;17.10;;
13641;SDS011;6894;52.196;9.904;2024-03-02T06:37:48;19.40;;;15.33;;
13641;SDS011;6894;52.196;9.904;2024-03-02T06:40:16;21.37;;;15.83;;
13641;SDS011;6894;52.196;9.904;2024-03-02T06:42:43;22.37;;;16.13;;
13641;SDS011;6894;52.196;9.904;2024-03-02T06:45:09;21.70;;;16.73;;
13641;SDS011;6894;52.196;9.904;2024-03-02T06:47:36;19.73;;;15.43;;
13641;SDS011;6894;52.196;9.904;2024-03-02T06:50:03;18.13;;;14.67;;
13641;SDS011;6894;52.196;9.904;2024-03-02T06:52:32;23.10;;;16.90;;
13641;SDS011;6894;52.196;9.904;2024-03-02T06:54:58;23.47;;;15.83;;
13641;SDS011;6894;52.196;9.904;2024-03-02T06:57:26;20.97;;;16.17;;
13641;SDS011;6894;52.196;9.904;2024-03-02T06:59:53;21.37;;;15.30;;
13641;SDS011;6894;52.196;9.904;2024-03-02T07:02:23;20.80;;;15.63;;
13641;SDS011;6894;52.196;9.904;2024-03-02T07:04:51;18.47;;;14.77;;
13641;SDS011;6894;52.196;9.904;2024-03-02T07:07:18;20.03;;;15.40;;
13641;SDS011;6894;52.196;9.904;2024-03-02T07:09:45;20.57;;;15.73;;
13641;SDS011;6894;52.196;9.904;2024-03-02T07:12:12;20.30;;;15.57;;
13641;SDS011;6894;52.196;9.904;2024-03-02T07:14:40;23.00;;;16.23;;
13641;SDS011;6894;52.196;9.904;2024-03-02T07:17:24;19.17;;;14.73;;
13641;SDS011;6894;52.196;9.904;2024-03-02T07:19:51;20.73;;;15.60;;
13641;SDS011;6894;52.196;9.904;2024-03-02T07:22:18;25.30;;;16.47;;
13641;SDS011;6894;52.196;9.904;2024-03-02T07:24:45;20.20;;;15.40;;
13641;SDS011;6894;52.196;9.904;2024-03-02T07:27:12;20.37;;;16.07;;
13641;SDS011;6894;52.196;9.904;2024-03-02T07:29:41;20.63;;;16.00;;
13641;SDS011;6894;52.196;9.904;2024-03-02T07:32:08;21.27;;;15.50;;
13641;SDS011;6894;52.196;9.904;2024-03-02T07:34:36;17.70;;;15.00;;
13641;SDS011;6894;52.196;9.904;2024-03-02T07:37:03;20.37;;;14.97;;
13641;SDS011;6894;52.196;9.904;2024-03-02T07:39:30;19.20;;;15.20;;
13641;SDS011;6894;52.196;9.904;2024-03-02T07:41:57;21.23;;;15.97;;
13641;SDS011;6894;52.196;9.904;2024-03-02T07:44:25;19.10;;;15.80;;
13641;SDS011;6894;52.196;9.904;2024-03-02T07:46:53;20.00;;;15.70;;
13641;SDS011;6894;52.196;9.904;2024-03-02T07:49:20;20.90;;;16.23;;
13641;SDS011;6894;52.196;9.904;2024-03-02T07:51:47;19.93;;;15.57;;
13641;SDS011;6894;52.196;9.904;2024-03-02T07:54:14;19.47;;;15.00;;
13641;SDS011;6894;52.196;9.904;2024-03-02T07:56:40;18.20;;;13.83;;
13641;SDS011;6894;52.196;9.904;2024-03-02T07:59:07;18.97;;;15.00;;
13641;SDS011;6894;52.196;9.904;2024-03-02T08:01:34;18.83;;;14.73;;
13641;SDS011;6894;52.196;9.904;2024-03-02T08:04:03;21.03;;;14.63;;
13641;SDS011;6894;52.196;9.904;2024-03-02T08:06:30;19.07;;;14.70;;
13641;SDS011;6894;52.196;9.904;2024-03-02T08:08:57;16.83;;;13.80;;
13641;SDS011;6894;52.196;9.904;2024-03-02T08:11:25;18.63;;;14.70;;
13641;SDS011;6894;52.196;9.904;2024-03-02T08:13:52;18.50;;;14.30;;
13641;SDS011;6894;52.196;9.904;2024-03-02T08:16:20;16.97;;;13.93;;
13641;SDS011;6894;52.196;9.904;2024-03-02T08:18:48;16.63;;;13.43;;
13641;SDS011;6894;52.196;9.904;2024-03-02T08:21:17;19.37;;;15.63;;
13641;SDS011;6894;52.196;9.904;2024-03-02T08:23:44;17.50;;;14.80;;
13641;SDS011;6894;52.196;9.904;2024-03-02T08:26:11;19.80;;;14.67;;
13641;SDS011;6894;52.196;9.904;2024-03-02T08:28:38;19.73;;;14.97;;
13641;SDS011;6894;52.196;9.904;2024-03-02T08:31:05;17.77;;;14.93;;
13641;SDS011;6894;52.196;9.904;2024-03-02T08:33:32;17.67;;;14.27;;
13641;SDS011;6894;52.196;9.904;2024-03-02T08:35:59;17.43;;;14.30;;
13641;SDS011;6894;52.196;9.904;2024-03-02T08:38:27;16.97;;;14.10;;
13641;SDS011;6894;52.196;9.904;2024-03-02T08:40:54;19.53;;;15.23;;
13641;SDS011;6894;52.196;9.904;2024-03-02T08:43:21;19.33;;;15.27;;
13641;SDS011;6894;52.196;9.904;2024-03-02T08:45:48;20.10;;;14.33;;
13641;SDS011;6894;52.196;9.904;2024-03-02T08:48:16;16.03;;;14.10;;
13641;SDS011;6894;52.196;9.904;2024-03-02T08:50:42;16.07;;;13.80;;
13641;SDS011;6894;52.196;9.904;2024-03-02T08:53:09;18.93;;;14.20;;
13641;SDS011;6894;52.196;9.904;2024-03-02T08:55:37;18.10;;;14.20;;
13641;SDS011;6894;52.196;9.904;2024-03-02T08:58:05;16.73;;;14.47;;
13641;SDS011;6894;52.196;9.904;2024-03-02T09:00:33;15.23;;;13.07;;
13641;SDS011;6894;52.196;9.904;2024-03-02T09:02:59;18.23;;;14.30;;
13641;SDS011;6894;52.196;9.904;2024-03-02T09:05:26;14.87;;;13.17;;
13641;SDS011;6894;52.196;9.904;2024-03-02T09:07:53;17.60;;;14.53;;
13641;SDS011;6894;52.196;9.904;2024-03-02T09:10:20;15.13;;;13.10;;
13641;SDS011;6894;52.196;9.904;2024-03-02T09:12:48;17.60;;;13.27;;
13641;SDS011;6894;52.196;9.904;2024-03-02T09:15:15;14.83;;;11.83;;
13641;SDS011;6894;52.196;9.904;2024-03-02T09:17:42;16.27;;;12.57;;
13641;SDS011;6894;52.196;9.904;2024-03-02T09:20:10;13.23;;;10.07;;
13641;SDS011;6894;52.196;9.904;2024-03-02T09:22:38;13.43;;;10.27;;
13641;SDS011;6894;52.196;9.904;2024-03-02T09:25:06;12.93;;;10.30;;
13641;SDS011;6894;52.196;9.904;2024-03-02T09:27:35;14.67;;;11.83;;
13641;SDS011;6894;52.196;9.904;2024-03-02T09:30:05;12.80;;;10.00;;
13641;SDS011;6894;52.196;9.904;2024-03-02T09:32:34;12.30;;;9.97;;
13641;SDS011;6894;52.196;9.904;2024-03-02T09:35:02;11.97;;;10.73;;
13641;SDS011;6894;52.196;9.904;2024-03-02T09:37:29;12.87;;;10.37;;
13641;SDS011;6894;52.196;9.904;2024-03-02T09:39:56;10.67;;;9.57;;
13641;SDS011;6894;52.196;9.904;2024-03-02T09:42:24;11.60;;;10.40;;
13641;SDS011;6894;52.196;9.904;2024-03-02T09:44:52;12.00;;;9.10;;
13641;SDS011;6894;52.196;9.904;2024-03-02T09:47:20;11.37;;;9.80;;
13641;SDS011;6894;52.196;9.904;2024-03-02T09:49:47;10.53;;;9.43;;
13641;SDS011;6894;52.196;9.904;2024-03-02T09:52:14;11.70;;;9.40;;
13641;SDS011;6894;52.196;9.904;2024-03-02T09:54:41;11.83;;;10.10;;
13641;SDS011;6894;52.196;9.904;2024-03-02T09:57:08;13.70;;;10.20;;
13641;SDS011;6894;52.196;9.904;2024-03-02T09:59:35;12.20;;;10.10;;
13641;SDS011;6894;52.196;9.904;2024-03-02T10:02:02;13.03;;;10.30;;
13641;SDS011;6894;52.196;9.904;2024-03-02T10:04:33;10.77;;;9.13;;
13641;SDS011;6894;52.196;9.904;2024-03-02T10:07:11;11.30;;;10.10;;
13641;SDS011;6894;52.196;9.904;2024-03-02T10:09:39;12.83;;;10.23;;
13641;SDS011;6894;52.196;9.904;2024-03-02T10:12:07;12.00;;;9.33;;
13641;SDS011;6894;52.196;9.904;2024-03-02T10:14:34;10.60;;;8.97;;
13641;SDS011;6894;52.196;9.904;2024-03-02T10:17:02;10.70;;;8.70;;
13641;SDS011;6894;52.196;9.904;2024-03-02T10:19:29;10.90;;;9.20;;
13641;SDS011;6894;52.196;9.904;2024-03-02T10:21:59;12.83;;;10.37;;
13641;SDS011;6894;52.196;9.904;2024-03-02T10:24:27;14.50;;;10.93;;
13641;SDS011;6894;52.196;9.904;2024-03-02T10:27:01;13.03;;;10.07;;
13641;SDS011;6894;52.196;9.904;2024-03-02T10:29:29;12.57;;;10.60;;
13641;SDS011;6894;52.196;9.904;2024-03-02T10:31:56;11.87;;;9.73;;
13641;SDS011;6894;52.196;9.904;2024-03-02T10:34:24;12.17;;;10.17;;
13641;SDS011;6894;52.196;9.904;2024-03-02T10:36:51;13.83;;;10.83;;
13641;SDS011;6894;52.196;9.904;2024-03-02T10:39:19;13.43;;;10.33;;
13641;SDS011;6894;52.196;9.904;2024-03-02T10:41:46;10.63;;;9.53;;
13641;SDS011;6894;52.196;9.904;2024-03-02T10:44:18;11.83;;;10.17;;
13641;SDS011;6894;52.196;9.904;2024-03-02T10:46:45;11.27;;;10.03;;
13641;SDS011;6894;52.196;9.904;2024-03-02T10:49:15;12.97;;;10.27;;
13641;SDS011;6894;52.196;9.904;2024-03-02T10:51:43;12.23;;;9.50;;
13641;SDS011;6894;52.196;9.904;2024-03-02T10:54:10;10.97;;;8.90;;
13641;SDS011;6894;52.196;9.904;2024-03-02T10:56:39;11.40;;;10.07;;
13641;SDS011;6894;52.196;9.904;2024-03-02T10:59:09;11.37;;;10.07;;
13641;SDS011;6894;52.196;9.904;2024-03-02T11:01:43;11.23;;;9.47;;
13641;SDS011;6894;52.196;9.904;2024-03-02T11:04:14;9.70;;;8.73;;
13641;SDS011;6894;52.196;9.904;2024-03-02T11:06:44;12.20;;;8.63;;
13641;SDS011;6894;52.196;9.904;2024-03-02T11:09:14;11.63;;;8.53;;
13641;SDS011;6894;52.196;9.904;2024-03-02T11:11:49;13.23;;;9.17;;
13641;SDS011;6894;52.196;9.904;2024-03-02T11:14:23;9.83;;;8.50;;
13641;SDS011;6894;52.196;9.904;2024-03-02T11:16:51;9.30;;;7.90;;
13641;SDS011;6894;52.196;9.904;2024-03-02T11:19:19;9.13;;;7.67;;
13641;SDS011;6894;52.196;9.904;2024-03-02T11:21:46;8.57;;;7.57;;
13641;SDS011;6894;52.196;9.904;2024-03-02T11:24:29;10.43;;;8.37;;
13641;SDS011;6894;52.196;9.904;2024-03-02T11:27:02;10.60;;;7.33;;
13641;SDS011;6894;52.196;9.904;2024-03-02T11:29:45;7.97;;;6.33;;
13641;SDS011;6894;52.196;9.904;2024-03-02T11:32:13;7.97;;;5.47;;
13641;SDS011;6894;52.196;9.904;2024-03-02T11:34:45;7.93;;;5.00;;
13641;SDS011;6894;52.196;9.904;2024-03-02T11:37:13;8.40;;;5.60;;
13641;SDS011;6894;52.196;9.904;2024-03-02T11:39:40;7.77;;;5.27;;
13641;SDS011;6894;52.196;9.904;2024-03-02T11:42:09;6.13;;;5.53;;
13641;SDS011;6894;52.196;9.904;2024-03-02T11:44:39;6.47;;;5.13;;
13641;SDS011;6894;52.196;9.904;2024-03-02T11:47:07;9.67;;;6.40;;
13641;SDS011;6894;52.196;9.904;2024-03-02T11:49:37;7.77;;;6.37;;
13641;SDS011;6894;52.196;9.904;2024-03-02T11:52:05;8.20;;;6.10;;
13641;SDS011;6894;52.196;9.904;2024-03-02T11:54:33;8.63;;;6.77;;
13641;SDS011;6894;52.196;9.904;2024-03-02T11:57:01;8.93;;;7.27;;
13641;SDS011;6894;52.196;9.904;2024-03-02T11:59:30;9.23;;;6.83;;
13641;SDS011;6894;52.196;9.904;2024-03-02T12:01:57;8.33;;;6.93;;
13641;SDS011;6894;52.196;9.904;2024-03-02T12:04:24;7.40;;;6.60;;
13641;SDS011;6894;52.196;9.904;2024-03-02T12:06:54;9.53;;;6.37;;
13641;SDS011;6894;52.196;9.904;2024-03-02T12:09:21;7.97;;;6.00;;
13641;SDS011;6894;52.196;9.904;2024-03-02T12:11:56;9.30;;;7.03;;
13641;SDS011;6894;52.196;9.904;2024-03-02T12:14:30;9.60;;;7.43;;
13641;SDS011;6894;52.196;9.904;2024-03-02T12:16:57;7.77;;;6.93;;
13641;SDS011;6894;52.196;9.904;2024-03-02T12:19:24;8.77;;;6.80;;
13641;SDS011;6894;52.196;9.904;2024-03-02T12:21:51;7.93;;;6.67;;
13641;SDS011;6894;52.196;9.904;2024-03-02T12:24:18;9.07;;;6.70;;
13641;SDS011;6894;52.196;9.904;2024-03-02T12:26:46;8.53;;;6.20;;
13641;SDS011;6894;52.196;9.904;2024-03-02T12:29:13;9.20;;;7.03;;
13641;SDS011;6894;52.196;9.904;2024-03-02T12:31:43;8.37;;;7.10;;
13641;SDS011;6894;52.196;9.904;2024-03-02T12:34:10;9.53;;;6.77;;
13641;SDS011;6894;52.196;9.904;2024-03-02T12:36:39;8.67;;;7.30;;
13641;SDS011;6894;52.196;9.904;2024-03-02T12:39:06;7.60;;;6.37;;
13641;SDS011;6894;52.196;9.904;2024-03-02T12:41:35;10.53;;;7.07;;
13641;SDS011;6894;52.196;9.904;2024-03-02T12:44:02;8.70;;;7.23;;
13641;SDS011;6894;52.196;9.904;2024-03-02T12:46:29;7.07;;;5.83;;
13641;SDS011;6894;52.196;9.904;2024-03-02T12:48:57;6.83;;;6.13;;
13641;SDS011;6894;52.196;9.904;2024-03-02T12:51:26;6.90;;;6.00;;
13641;SDS011;6894;52.196;9.904;2024-03-02T12:53:53;6.10;;;5.33;;
13641;SDS011;6894;52.196;9.904;2024-03-02T12:56:21;7.33;;;6.43;;
13641;SDS011;6894;52.196;9.904;2024-03-02T12:58:48;6.93;;;5.37;;
13641;SDS011;6894;52.196;9.904;2024-03-02T13:01:20;6.73;;;5.63;;
13641;SDS011;6894;52.196;9.904;2024-03-02T13:03:49;8.30;;;4.67;;
13641;SDS011;6894;52.196;9.904;2024-03-02T13:06:17;6.23;;;5.20;;
13641;SDS011;6894;52.196;9.904;2024-03-02T13:08:45;7.40;;;5.60;;
13641;SDS011;6894;52.196;9.904;2024-03-02T13:11:12;9.33;;;4.70;;
13641;SDS011;6894;52.196;9.904;2024-03-02T13:13:39;4.83;;;4.17;;
13641;SDS011;6894;52.196;9.904;2024-03-02T13:16:08;5.37;;;4.27;;
13641;SDS011;6894;52.196;9.904;2024-03-02T13:18:35;4.90;;;4.40;;
13641;SDS011;6894;52.196;9.904;2024-03-02T13:21:02;5.30;;;4.40;;
13641;SDS011;6894;52.196;9.904;2024-03-02T13:23:31;5.33;;;4.00;;
13641;SDS011;6894;52.196;9.904;2024-03-02T13:25:57;4.10;;;3.27;;
13641;SDS011;6894;52.196;9.904;2024-03-02T13:28:25;4.03;;;3.33;;
13641;SDS011;6894;52.196;9.904;2024-03-02T13:30:51;4.07;;;3.37;;
13641;SDS011;6894;52.196;9.904;2024-03-02T13:33:18;5.70;;;3.67;;
13641;SDS011;6894;52.196;9.904;2024-03-02T13:35:47;5.63;;;3.83;;
13641;SDS011;6894;52.196;9.904;2024-03-02T13:38:15;3.50;;;2.87;;
13641;SDS011;6894;52.196;9.904;2024-03-02T13:40:43;4.40;;;2.70;;
13641;SDS011;6894;52.196;9.904;2024-03-02T13:43:10;2.97;;;2.27;;
13641;SDS011;6894;52.196;9.904;2024-03-02T13:45:37;3.40;;;2.77;;
13641;SDS011;6894;52.196;9.904;2024-03-02T13:48:04;3.20;;;2.90;;
13641;SDS011;6894;52.196;9.904;2024-03-02T13:50:31;3.77;;;2.73;;
13641;SDS011;6894;52.196;9.904;2024-03-02T13:52:58;4.60;;;3.17;;
13641;SDS011;6894;52.196;9.904;2024-03-02T13:55:25;5.00;;;4.37;;
13641;SDS011;6894;52.196;9.904;2024-03-02T13:57:53;4.77;;;4.27;;
13641;SDS011;6894;52.196;9.904;2024-03-02T14:00:20;6.37;;;4.67;;
13641;SDS011;6894;52.196;9.904;2024-03-02T14:02:47;5.13;;;4.60;;
13641;SDS011;6894;52.196;9.904;2024-03-02T14:05:15;6.83;;;5.70;;
13641;SDS011;6894;52.196;9.904;2024-03-02T14:07:42;5.80;;;4.67;;
13641;SDS011;6894;52.196;9.904;2024-03-02T14:10:09;5.10;;;4.60;;
13641;SDS011;6894;52.196;9.904;2024-03-02T14:12:36;6.10;;;4.40;;
13641;SDS011;6894;52.196;9.904;2024-03-02T14:15:05;5.10;;;4.40;;
13641;SDS011;6894;52.196;9.904;2024-03-02T14:17:32;5.63;;;4.53;;
13641;SDS011;6894;52.196;9.904;2024-03-02T14:19:59;5.97;;;4.30;;
13641;SDS011;6894;52.196;9.904;2024-03-02T14:22:26;5.53;;;4.67;;
13641;SDS011;6894;52.196;9.904;2024-03-02T14:24:53;5.07;;;4.37;;
13641;SDS011;6894;52.196;9.904;2024-03-02T14:27:20;9.80;;;4.60;;
13641;SDS011;6894;52.196;9.904;2024-03-02T14:29:46;5.97;;;4.10;;
13641;SDS011;6894;52.196;9.904;2024-03-02T14:32:15;5.33;;;4.23;;
13641;SDS011;6894;52.196;9.904;2024-03-02T14:34:41;6.07;;;4.07;;
13641;SDS011;6894;52.196;9.904;2024-03-02T14:37:09;4.67;;;4.13;;
13641;SDS011;6894;52.196;9.904;2024-03-02T14:39:36;5.73;;;4.37;;
13641;SDS011;6894;52.196;9.904;2024-03-02T14:42:02;6.33;;;4.97;;
13641;SDS011;6894;52.196;9.904;2024-03-02T14:44:29;6.50;;;4.43;;